sensor_id;sensor_type;location;lat;lon;timestamp;temperature;humidity
25342;DHT22;13298;48.792;9.154;2023-03-14T00:01:20;9.00;99.90
25342;DHT22;13298;48.792;9.154;2023-03-14T00:03:46;9.00;99.90
25342;DHT22;13298;48.792;9.154;2023-03-14T00:06:13;9.00;99.90
25342;DHT22;13298;48.792;9.154;2023-03-14T00:08:40;9.00;99.90
25342;DHT22;13298;48.792;9.154;2023-03-14T00:11:12;9.00;99.90
25342;DHT22;13298;48.792;9.154;2023-03-14T00:13:38;8.90;99.90
25342;DHT22;13298;48.792;9.154;2023-03-14T00:16:06;8.90;99.90
25342;DHT22;13298;48.792;9.154;2023-03-14T00:18:34;8.90;99.90
25342;DHT22;13298;48.792;9.154;2023-03-14T00:21:01;8.90;99.90
25342;DHT22;13298;48.792;9.154;2023-03-14T00:23:28;8.90;99.90
25342;DHT22;13298;48.792;9.154;2023-03-14T00:26:03;8.90;99.90
25342;DHT22;13298;48.792;9.154;2023-03-14T00:28:33;8.90;99.90
25342;DHT22;13298;48.792;9.154;2023-03-14T00:30:59;8.80;99.90
25342;DHT22;13298;48.792;9.154;2023-03-14T00:33:26;8.80;99.90
25342;DHT22;13298;48.792;9.154;2023-03-14T00:36:04;8.80;99.90
25342;DHT22;13298;48.792;9.154;2023-03-14T00:38:34;8.80;99.90
25342;DHT22;13298;48.792;9.154;2023-03-14T00:41:03;8.80;99.90
25342;DHT22;13298;48.792;9.154;2023-03-14T00:43:30;8.80;99.90
25342;DHT22;13298;48.792;9.154;2023-03-14T00:45:56;8.70;99.90
25342;DHT22;13298;48.792;9.154;2023-03-14T00:48:22;8.80;99.90
25342;DHT22;13298;48.792;9.154;2023-03-14T00:50:48;8.70;99.90
25342;DHT22;13298;48.792;9.154;2023-03-14T00:53:14;8.70;99.90
25342;DHT22;13298;48.792;9.154;2023-03-14T00:55:42;8.70;99.90
25342;DHT22;13298;48.792;9.154;2023-03-14T00:58:09;8.70;99.90
25342;DHT22;13298;48.792;9.154;2023-03-14T01:00:36;8.70;99.90
25342;DHT22;13298;48.792;9.154;2023-03-14T01:03:02;8.70;99.90
25342;DHT22;13298;48.792;9.154;2023-03-14T01:05:28;8.70;99.90
25342;DHT22;13298;48.792;9.154;2023-03-14T01:07:54;8.70;99.90
25342;DHT22;13298;48.792;9.154;2023-03-14T01:10:20;8.70;99.90
25342;DHT22;13298;48.792;9.154;2023-03-14T01:12:46;8.80;99.90
25342;DHT22;13298;48.792;9.154;2023-03-14T01:15:11;8.80;99.90
25342;DHT22;13298;48.792;9.154;2023-03-14T01:17:37;8.90;99.90
25342;DHT22;13298;48.792;9.154;2023-03-14T01:20:06;8.90;99.90
25342;DHT22;13298;48.792;9.154;2023-03-14T01:22:37;8.90;99.90
25342;DHT22;13298;48.792;9.154;2023-03-14T01:25:06;8.90;99.90
25342;DHT22;13298;48.792;9.154;2023-03-14T01:27:32;8.90;99.90
25342;DHT22;13298;48.792;9.154;2023-03-14T01:29:58;9.00;99.90
25342;DHT22;13298;48.792;9.154;2023-03-14T01:32:24;9.00;99.90
25342;DHT22;13298;48.792;9.154;2023-03-14T01:34:51;9.00;99.90
25342;DHT22;13298;48.792;9.154;2023-03-14T01:37:17;9.00;99.90
25342;DHT22;13298;48.792;9.154;2023-03-14T01:39:42;9.00;99.90
25342;DHT22;13298;48.792;9.154;2023-03-14T01:42:08;8.90;99.90
25342;DHT22;13298;48.792;9.154;2023-03-14T01:47:21;8.80;99.90
25342;DHT22;13298;48.792;9.154;2023-03-14T01:52:46;8.80;99.90
25342;DHT22;13298;48.792;9.154;2023-03-14T01:55:17;8.70;99.90
25342;DHT22;13298;48.792;9.154;2023-03-14T01:57:53;8.70;99.90
25342;DHT22;13298;48.792;9.154;2023-03-14T02:00:21;8.70;99.90
25342;DHT22;13298;48.792;9.154;2023-03-14T02:02:51;8.70;99.90
25342;DHT22;13298;48.792;9.154;2023-03-14T02:05:23;8.70;99.90
25342;DHT22;13298;48.792;9.154;2023-03-14T02:07:56;8.70;99.90
25342;DHT22;13298;48.792;9.154;2023-03-14T02:10:25;8.70;99.90
25342;DHT22;13298;48.792;9.154;2023-03-14T02:12:55;8.70;99.90
25342;DHT22;13298;48.792;9.154;2023-03-14T02:15:22;8.70;99.90
25342;DHT22;13298;48.792;9.154;2023-03-14T02:17:48;8.60;99.90
25342;DHT22;13298;48.792;9.154;2023-03-14T02:22:47;8.50;99.90
25342;DHT22;13298;48.792;9.154;2023-03-14T02:28:21;8.50;99.90
25342;DHT22;13298;48.792;9.154;2023-03-14T02:30:47;8.50;99.90
25342;DHT22;13298;48.792;9.154;2023-03-14T02:33:16;8.50;99.90
25342;DHT22;13298;48.792;9.154;2023-03-14T02:36:02;8.50;99.90
25342;DHT22;13298;48.792;9.154;2023-03-14T02:38:47;8.50;99.90
25342;DHT22;13298;48.792;9.154;2023-03-14T02:41:16;8.50;99.90
25342;DHT22;13298;48.792;9.154;2023-03-14T02:43:41;8.50;99.90
25342;DHT22;13298;48.792;9.154;2023-03-14T02:46:11;8.50;99.90
25342;DHT22;13298;48.792;9.154;2023-03-14T02:48:45;8.50;99.90
25342;DHT22;13298;48.792;9.154;2023-03-14T02:51:17;8.50;99.90
25342;DHT22;13298;48.792;9.154;2023-03-14T02:53:43;8.50;99.90
25342;DHT22;13298;48.792;9.154;2023-03-14T02:56:09;8.50;99.90
25342;DHT22;13298;48.792;9.154;2023-03-14T02:58:36;8.50;99.90
25342;DHT22;13298;48.792;9.154;2023-03-14T03:01:02;8.50;99.90
25342;DHT22;13298;48.792;9.154;2023-03-14T03:03:28;8.50;99.90
25342;DHT22;13298;48.792;9.154;2023-03-14T03:05:55;8.50;99.90
25342;DHT22;13298;48.792;9.154;2023-03-14T03:08:23;8.50;99.90
25342;DHT22;13298;48.792;9.154;2023-03-14T03:10:50;8.50;99.90
25342;DHT22;13298;48.792;9.154;2023-03-14T03:13:16;8.50;99.90
25342;DHT22;13298;48.792;9.154;2023-03-14T03:15:42;8.40;99.90
25342;DHT22;13298;48.792;9.154;2023-03-14T03:18:08;8.50;99.90
25342;DHT22;13298;48.792;9.154;2023-03-14T03:20:34;8.40;99.90
25342;DHT22;13298;48.792;9.154;2023-03-14T03:23:00;8.40;99.90
25342;DHT22;13298;48.792;9.154;2023-03-14T03:25:26;8.40;99.90
25342;DHT22;13298;48.792;9.154;2023-03-14T03:27:52;8.40;99.90
25342;DHT22;13298;48.792;9.154;2023-03-14T03:30:18;8.50;99.90
25342;DHT22;13298;48.792;9.154;2023-03-14T03:32:44;8.40;99.90
25342;DHT22;13298;48.792;9.154;2023-03-14T03:35:10;8.40;99.90
25342;DHT22;13298;48.792;9.154;2023-03-14T03:37:36;8.50;99.90
25342;DHT22;13298;48.792;9.154;2023-03-14T03:40:02;8.50;99.90
25342;DHT22;13298;48.792;9.154;2023-03-14T03:42:31;8.50;99.90
25342;DHT22;13298;48.792;9.154;2023-03-14T03:44:59;8.40;99.90
25342;DHT22;13298;48.792;9.154;2023-03-14T03:47:25;8.40;99.90
25342;DHT22;13298;48.792;9.154;2023-03-14T03:49:50;8.40;99.90
25342;DHT22;13298;48.792;9.154;2023-03-14T03:52:16;8.30;99.90
25342;DHT22;13298;48.792;9.154;2023-03-14T03:54:42;8.30;99.90
25342;DHT22;13298;48.792;9.154;2023-03-14T03:57:07;8.30;99.90
25342;DHT22;13298;48.792;9.154;2023-03-14T03:59:33;8.20;99.90
25342;DHT22;13298;48.792;9.154;2023-03-14T04:01:59;8.30;99.90
25342;DHT22;13298;48.792;9.154;2023-03-14T04:04:25;8.20;99.90
25342;DHT22;13298;48.792;9.154;2023-03-14T04:06:50;8.10;99.90
25342;DHT22;13298;48.792;9.154;2023-03-14T04:09:16;8.20;99.90
25342;DHT22;13298;48.792;9.154;2023-03-14T04:11:42;8.10;99.90
25342;DHT22;13298;48.792;9.154;2023-03-14T04:14:08;8.10;99.90
25342;DHT22;13298;48.792;9.154;2023-03-14T04:16:34;8.10;99.90
25342;DHT22;13298;48.792;9.154;2023-03-14T04:19:01;8.10;99.90
25342;DHT22;13298;48.792;9.154;2023-03-14T04:21:27;8.10;99.90
25342;DHT22;13298;48.792;9.154;2023-03-14T04:23:52;8.10;99.90
25342;DHT22;13298;48.792;9.154;2023-03-14T04:26:18;8.10;99.90
25342;DHT22;13298;48.792;9.154;2023-03-14T04:28:44;8.00;99.90
25342;DHT22;13298;48.792;9.154;2023-03-14T04:31:15;8.00;99.90
25342;DHT22;13298;48.792;9.154;2023-03-14T04:33:42;8.00;99.90
25342;DHT22;13298;48.792;9.154;2023-03-14T04:36:09;8.00;99.90
25342;DHT22;13298;48.792;9.154;2023-03-14T04:38:34;7.90;99.90
25342;DHT22;13298;48.792;9.154;2023-03-14T04:41:01;8.00;99.90
25342;DHT22;13298;48.792;9.154;2023-03-14T04:43:27;8.00;99.90
25342;DHT22;13298;48.792;9.154;2023-03-14T04:45:54;8.10;99.90
25342;DHT22;13298;48.792;9.154;2023-03-14T04:48:21;8.00;99.90
25342;DHT22;13298;48.792;9.154;2023-03-14T04:50:47;8.00;99.90
25342;DHT22;13298;48.792;9.154;2023-03-14T04:53:13;8.00;99.90
25342;DHT22;13298;48.792;9.154;2023-03-14T04:55:39;7.90;99.90
25342;DHT22;13298;48.792;9.154;2023-03-14T04:58:05;7.90;99.90
25342;DHT22;13298;48.792;9.154;2023-03-14T05:00:31;7.90;99.90
25342;DHT22;13298;48.792;9.154;2023-03-14T05:02:57;7.80;99.90
25342;DHT22;13298;48.792;9.154;2023-03-14T05:05:22;7.80;99.90
25342;DHT22;13298;48.792;9.154;2023-03-14T05:07:48;7.70;99.90
25342;DHT22;13298;48.792;9.154;2023-03-14T05:10:14;7.70;99.90
25342;DHT22;13298;48.792;9.154;2023-03-14T05:12:40;7.70;99.90
25342;DHT22;13298;48.792;9.154;2023-03-14T05:15:06;7.70;99.90
25342;DHT22;13298;48.792;9.154;2023-03-14T05:17:33;7.60;99.90
25342;DHT22;13298;48.792;9.154;2023-03-14T05:19:59;7.70;99.90
25342;DHT22;13298;48.792;9.154;2023-03-14T05:22:24;7.60;99.90
25342;DHT22;13298;48.792;9.154;2023-03-14T05:24:50;7.60;99.90
25342;DHT22;13298;48.792;9.154;2023-03-14T05:27:16;7.60;99.90
25342;DHT22;13298;48.792;9.154;2023-03-14T05:29:42;7.60;99.90
25342;DHT22;13298;48.792;9.154;2023-03-14T05:32:07;7.60;99.90
25342;DHT22;13298;48.792;9.154;2023-03-14T05:34:33;7.50;99.90
25342;DHT22;13298;48.792;9.154;2023-03-14T05:36:59;7.50;99.90
25342;DHT22;13298;48.792;9.154;2023-03-14T05:39:25;7.40;99.90
25342;DHT22;13298;48.792;9.154;2023-03-14T05:41:50;7.40;99.90
25342;DHT22;13298;48.792;9.154;2023-03-14T05:44:16;7.40;99.90
25342;DHT22;13298;48.792;9.154;2023-03-14T05:49:11;7.30;99.90
25342;DHT22;13298;48.792;9.154;2023-03-14T05:51:37;7.30;99.90
25342;DHT22;13298;48.792;9.154;2023-03-14T05:54:03;7.30;99.90
25342;DHT22;13298;48.792;9.154;2023-03-14T05:56:28;7.40;99.90
25342;DHT22;13298;48.792;9.154;2023-03-14T05:58:54;7.40;99.90
25342;DHT22;13298;48.792;9.154;2023-03-14T06:01:20;7.40;99.90
25342;DHT22;13298;48.792;9.154;2023-03-14T06:03:45;7.50;99.90
25342;DHT22;13298;48.792;9.154;2023-03-14T06:06:11;7.60;99.90
25342;DHT22;13298;48.792;9.154;2023-03-14T06:08:37;7.60;99.90
25342;DHT22;13298;48.792;9.154;2023-03-14T06:11:03;7.60;99.90
25342;DHT22;13298;48.792;9.154;2023-03-14T06:13:29;7.70;99.90
25342;DHT22;13298;48.792;9.154;2023-03-14T06:15:55;7.70;99.90
25342;DHT22;13298;48.792;9.154;2023-03-14T06:18:20;7.70;99.90
25342;DHT22;13298;48.792;9.154;2023-03-14T06:20:46;7.70;99.90
25342;DHT22;13298;48.792;9.154;2023-03-14T06:23:12;7.80;99.90
25342;DHT22;13298;48.792;9.154;2023-03-14T06:25:37;7.80;99.90
25342;DHT22;13298;48.792;9.154;2023-03-14T06:28:03;7.70;99.90
25342;DHT22;13298;48.792;9.154;2023-03-14T06:30:29;7.70;99.90
25342;DHT22;13298;48.792;9.154;2023-03-14T06:32:55;7.70;99.90
25342;DHT22;13298;48.792;9.154;2023-03-14T06:35:23;7.60;99.90
25342;DHT22;13298;48.792;9.154;2023-03-14T06:37:49;7.70;99.90
25342;DHT22;13298;48.792;9.154;2023-03-14T06:40:15;7.70;99.90
25342;DHT22;13298;48.792;9.154;2023-03-14T06:42:44;7.80;99.90
25342;DHT22;13298;48.792;9.154;2023-03-14T06:45:10;7.90;99.90
25342;DHT22;13298;48.792;9.154;2023-03-14T06:47:36;7.90;99.90
25342;DHT22;13298;48.792;9.154;2023-03-14T06:50:04;7.90;99.90
25342;DHT22;13298;48.792;9.154;2023-03-14T06:52:32;7.90;99.90
25342;DHT22;13298;48.792;9.154;2023-03-14T06:54:58;8.00;99.90
25342;DHT22;13298;48.792;9.154;2023-03-14T06:57:24;8.10;99.90
25342;DHT22;13298;48.792;9.154;2023-03-14T06:59:50;8.10;99.90
25342;DHT22;13298;48.792;9.154;2023-03-14T07:02:16;8.30;99.90
25342;DHT22;13298;48.792;9.154;2023-03-14T07:04:41;8.60;99.90
25342;DHT22;13298;48.792;9.154;2023-03-14T07:07:07;8.80;99.90
25342;DHT22;13298;48.792;9.154;2023-03-14T07:09:34;8.90;99.90
25342;DHT22;13298;48.792;9.154;2023-03-14T07:12:00;8.90;99.90
25342;DHT22;13298;48.792;9.154;2023-03-14T07:14:26;9.00;99.90
25342;DHT22;13298;48.792;9.154;2023-03-14T07:16:52;8.90;99.90
25342;DHT22;13298;48.792;9.154;2023-03-14T07:19:17;9.00;99.90
25342;DHT22;13298;48.792;9.154;2023-03-14T07:21:43;9.00;99.90
25342;DHT22;13298;48.792;9.154;2023-03-14T07:24:09;9.10;99.90
25342;DHT22;13298;48.792;9.154;2023-03-14T07:26:35;9.30;99.90
25342;DHT22;13298;48.792;9.154;2023-03-14T07:29:00;9.40;99.90
25342;DHT22;13298;48.792;9.154;2023-03-14T07:31:28;9.60;99.90
25342;DHT22;13298;48.792;9.154;2023-03-14T07:33:54;9.80;99.90
25342;DHT22;13298;48.792;9.154;2023-03-14T07:36:20;9.90;99.90
25342;DHT22;13298;48.792;9.154;2023-03-14T07:38:46;10.00;99.90
25342;DHT22;13298;48.792;9.154;2023-03-14T07:41:13;10.20;99.90
25342;DHT22;13298;48.792;9.154;2023-03-14T07:43:38;10.30;99.90
25342;DHT22;13298;48.792;9.154;2023-03-14T07:46:04;10.40;99.90
25342;DHT22;13298;48.792;9.154;2023-03-14T07:48:30;10.40;99.90
25342;DHT22;13298;48.792;9.154;2023-03-14T07:50:56;10.50;99.90
25342;DHT22;13298;48.792;9.154;2023-03-14T07:53:23;10.50;99.90
25342;DHT22;13298;48.792;9.154;2023-03-14T07:55:53;10.60;99.90
25342;DHT22;13298;48.792;9.154;2023-03-14T07:58:20;10.50;99.90
25342;DHT22;13298;48.792;9.154;2023-03-14T08:00:50;10.60;99.90
25342;DHT22;13298;48.792;9.154;2023-03-14T08:03:17;10.60;99.90
25342;DHT22;13298;48.792;9.154;2023-03-14T08:05:43;10.60;99.90
25342;DHT22;13298;48.792;9.154;2023-03-14T08:08:08;10.60;99.90
25342;DHT22;13298;48.792;9.154;2023-03-14T08:10:34;10.60;99.90
25342;DHT22;13298;48.792;9.154;2023-03-14T08:13:01;10.60;99.90
25342;DHT22;13298;48.792;9.154;2023-03-14T08:15:28;10.80;99.90
25342;DHT22;13298;48.792;9.154;2023-03-14T08:17:55;10.80;99.90
25342;DHT22;13298;48.792;9.154;2023-03-14T08:20:23;10.80;99.90
25342;DHT22;13298;48.792;9.154;2023-03-14T08:22:50;11.00;99.90
25342;DHT22;13298;48.792;9.154;2023-03-14T08:25:16;11.10;99.90
25342;DHT22;13298;48.792;9.154;2023-03-14T08:27:43;11.30;99.90
25342;DHT22;13298;48.792;9.154;2023-03-14T08:30:14;11.50;99.90
25342;DHT22;13298;48.792;9.154;2023-03-14T08:32:41;11.70;99.90
25342;DHT22;13298;48.792;9.154;2023-03-14T08:35:07;11.80;99.90
25342;DHT22;13298;48.792;9.154;2023-03-14T08:37:34;11.80;99.90
25342;DHT22;13298;48.792;9.154;2023-03-14T08:40:00;11.80;99.90
25342;DHT22;13298;48.792;9.154;2023-03-14T08:42:26;11.80;99.90
25342;DHT22;13298;48.792;9.154;2023-03-14T08:44:52;11.70;99.90
25342;DHT22;13298;48.792;9.154;2023-03-14T08:47:18;11.70;99.90
25342;DHT22;13298;48.792;9.154;2023-03-14T08:49:44;11.70;99.90
25342;DHT22;13298;48.792;9.154;2023-03-14T08:52:10;11.70;99.90
25342;DHT22;13298;48.792;9.154;2023-03-14T08:54:36;11.90;99.90
25342;DHT22;13298;48.792;9.154;2023-03-14T08:57:02;12.00;99.90
25342;DHT22;13298;48.792;9.154;2023-03-14T08:59:28;12.10;99.90
25342;DHT22;13298;48.792;9.154;2023-03-14T09:01:53;12.30;99.90
25342;DHT22;13298;48.792;9.154;2023-03-14T09:04:20;12.60;99.90
25342;DHT22;13298;48.792;9.154;2023-03-14T09:06:46;12.70;99.90
25342;DHT22;13298;48.792;9.154;2023-03-14T09:09:11;12.80;99.90
25342;DHT22;13298;48.792;9.154;2023-03-14T09:11:38;12.90;99.90
25342;DHT22;13298;48.792;9.154;2023-03-14T09:14:05;13.00;99.90
25342;DHT22;13298;48.792;9.154;2023-03-14T09:16:30;13.10;99.90
25342;DHT22;13298;48.792;9.154;2023-03-14T09:18:56;13.20;99.90
25342;DHT22;13298;48.792;9.154;2023-03-14T09:21:27;13.30;99.90
25342;DHT22;13298;48.792;9.154;2023-03-14T09:23:53;13.30;99.90
25342;DHT22;13298;48.792;9.154;2023-03-14T09:26:20;13.40;99.90
25342;DHT22;13298;48.792;9.154;2023-03-14T09:28:45;13.40;99.90
25342;DHT22;13298;48.792;9.154;2023-03-14T09:31:12;13.50;99.90
25342;DHT22;13298;48.792;9.154;2023-03-14T09:33:38;13.70;99.90
25342;DHT22;13298;48.792;9.154;2023-03-14T09:36:05;13.80;99.90
25342;DHT22;13298;48.792;9.154;2023-03-14T09:38:31;13.80;99.90
25342;DHT22;13298;48.792;9.154;2023-03-14T09:40:59;14.00;99.90
25342;DHT22;13298;48.792;9.154;2023-03-14T09:43:29;13.90;99.90
25342;DHT22;13298;48.792;9.154;2023-03-14T09:45:58;13.70;99.90
25342;DHT22;13298;48.792;9.154;2023-03-14T09:48:31;13.60;99.90
25342;DHT22;13298;48.792;9.154;2023-03-14T09:51:00;13.70;99.90
25342;DHT22;13298;48.792;9.154;2023-03-14T09:53:40;13.70;99.90
25342;DHT22;13298;48.792;9.154;2023-03-14T09:56:32;13.60;99.90
25342;DHT22;13298;48.792;9.154;2023-03-14T09:59:00;13.40;99.90
25342;DHT22;13298;48.792;9.154;2023-03-14T10:01:31;13.40;99.90
25342;DHT22;13298;48.792;9.154;2023-03-14T10:04:06;13.30;99.90
25342;DHT22;13298;48.792;9.154;2023-03-14T10:06:38;13.10;99.90
25342;DHT22;13298;48.792;9.154;2023-03-14T10:09:04;12.90;99.90
25342;DHT22;13298;48.792;9.154;2023-03-14T10:11:31;12.70;99.90
25342;DHT22;13298;48.792;9.154;2023-03-14T10:14:10;12.50;99.90
25342;DHT22;13298;48.792;9.154;2023-03-14T10:16:45;12.40;99.90
25342;DHT22;13298;48.792;9.154;2023-03-14T10:19:13;12.30;99.90
25342;DHT22;13298;48.792;9.154;2023-03-14T10:21:44;12.30;99.90
25342;DHT22;13298;48.792;9.154;2023-03-14T10:29:33;12.60;99.90
25342;DHT22;13298;48.792;9.154;2023-03-14T10:32:05;13.00;99.90
25342;DHT22;13298;48.792;9.154;2023-03-14T10:34:38;13.40;99.90
25342;DHT22;13298;48.792;9.154;2023-03-14T10:37:24;13.50;99.90
25342;DHT22;13298;48.792;9.154;2023-03-14T10:39:54;13.50;99.90
25342;DHT22;13298;48.792;9.154;2023-03-14T10:42:26;13.40;99.90
25342;DHT22;13298;48.792;9.154;2023-03-14T10:44:58;13.30;99.90
25342;DHT22;13298;48.792;9.154;2023-03-14T10:47:49;13.30;99.90
25342;DHT22;13298;48.792;9.154;2023-03-14T10:50:28;13.50;99.90
25342;DHT22;13298;48.792;9.154;2023-03-14T10:52:55;13.70;99.90
25342;DHT22;13298;48.792;9.154;2023-03-14T10:55:23;13.90;99.90
25342;DHT22;13298;48.792;9.154;2023-03-14T10:57:50;14.00;99.90
25342;DHT22;13298;48.792;9.154;2023-03-14T11:00:20;14.00;99.90
25342;DHT22;13298;48.792;9.154;2023-03-14T11:03:08;13.80;99.90
25342;DHT22;13298;48.792;9.154;2023-03-14T11:05:45;13.80;99.90
25342;DHT22;13298;48.792;9.154;2023-03-14T11:11:26;13.50;99.90
25342;DHT22;13298;48.792;9.154;2023-03-14T11:16:56;13.40;99.90
25342;DHT22;13298;48.792;9.154;2023-03-14T11:19:33;13.30;99.90
25342;DHT22;13298;48.792;9.154;2023-03-14T11:31:11;12.30;99.90
25342;DHT22;13298;48.792;9.154;2023-03-14T11:34:10;11.90;99.90
25342;DHT22;13298;48.792;9.154;2023-03-14T11:36:51;11.70;99.90
25342;DHT22;13298;48.792;9.154;2023-03-14T11:39:19;11.50;99.90
25342;DHT22;13298;48.792;9.154;2023-03-14T11:41:51;11.40;99.90
25342;DHT22;13298;48.792;9.154;2023-03-14T11:44:34;11.50;99.90
25342;DHT22;13298;48.792;9.154;2023-03-14T11:47:12;11.50;99.90
25342;DHT22;13298;48.792;9.154;2023-03-14T11:50:03;11.60;99.90
25342;DHT22;13298;48.792;9.154;2023-03-14T11:52:48;11.60;99.90
25342;DHT22;13298;48.792;9.154;2023-03-14T11:55:22;11.60;99.90
25342;DHT22;13298;48.792;9.154;2023-03-14T11:57:58;11.50;99.90
25342;DHT22;13298;48.792;9.154;2023-03-14T12:00:27;11.40;99.90
25342;DHT22;13298;48.792;9.154;2023-03-14T12:06:24;11.40;99.90
25342;DHT22;13298;48.792;9.154;2023-03-14T12:09:01;11.70;99.90
25342;DHT22;13298;48.792;9.154;2023-03-14T12:11:45;12.10;99.90
25342;DHT22;13298;48.792;9.154;2023-03-14T12:14:36;12.20;99.90
25342;DHT22;13298;48.792;9.154;2023-03-14T12:22:46;11.80;99.90
25342;DHT22;13298;48.792;9.154;2023-03-14T12:25:19;11.70;99.90
25342;DHT22;13298;48.792;9.154;2023-03-14T12:27:48;11.80;99.90
25342;DHT22;13298;48.792;9.154;2023-03-14T12:30:23;12.10;99.90
25342;DHT22;13298;48.792;9.154;2023-03-14T12:35:45;12.40;99.90
25342;DHT22;13298;48.792;9.154;2023-03-14T12:38:14;12.40;99.90
25342;DHT22;13298;48.792;9.154;2023-03-14T12:44:40;12.30;99.90
25342;DHT22;13298;48.792;9.154;2023-03-14T12:49:48;11.20;99.90
25342;DHT22;13298;48.792;9.154;2023-03-14T12:52:36;10.80;99.90
25342;DHT22;13298;48.792;9.154;2023-03-14T12:55:12;10.40;99.90
25342;DHT22;13298;48.792;9.154;2023-03-14T12:57:59;10.20;99.90
25342;DHT22;13298;48.792;9.154;2023-03-14T13:00:37;10.10;99.90
25342;DHT22;13298;48.792;9.154;2023-03-14T13:03:22;10.10;99.90
25342;DHT22;13298;48.792;9.154;2023-03-14T13:06:00;10.00;99.90
25342;DHT22;13298;48.792;9.154;2023-03-14T13:08:40;9.90;99.90
25342;DHT22;13298;48.792;9.154;2023-03-14T13:11:16;9.70;99.90
25342;DHT22;13298;48.792;9.154;2023-03-14T13:13:56;9.60;99.90
25342;DHT22;13298;48.792;9.154;2023-03-14T13:16:23;9.50;99.90
25342;DHT22;13298;48.792;9.154;2023-03-14T13:18:51;9.50;99.90
25342;DHT22;13298;48.792;9.154;2023-03-14T13:21:27;9.60;99.90
25342;DHT22;13298;48.792;9.154;2023-03-14T13:24:05;9.70;99.90
25342;DHT22;13298;48.792;9.154;2023-03-14T13:26:37;9.80;99.90
25342;DHT22;13298;48.792;9.154;2023-03-14T13:29:29;9.80;99.90
25342;DHT22;13298;48.792;9.154;2023-03-14T13:32:01;9.80;99.90
25342;DHT22;13298;48.792;9.154;2023-03-14T13:34:37;9.90;99.90
25342;DHT22;13298;48.792;9.154;2023-03-14T13:37:03;9.90;99.90
25342;DHT22;13298;48.792;9.154;2023-03-14T13:39:29;9.90;99.90
25342;DHT22;13298;48.792;9.154;2023-03-14T13:42:00;9.90;99.90
25342;DHT22;13298;48.792;9.154;2023-03-14T13:44:31;9.90;99.90
25342;DHT22;13298;48.792;9.154;2023-03-14T13:46:59;10.10;99.90
25342;DHT22;13298;48.792;9.154;2023-03-14T13:49:27;10.10;99.90
25342;DHT22;13298;48.792;9.154;2023-03-14T13:51:56;10.20;99.90
25342;DHT22;13298;48.792;9.154;2023-03-14T13:54:22;10.30;99.90
25342;DHT22;13298;48.792;9.154;2023-03-14T13:56:49;10.30;99.90
25342;DHT22;13298;48.792;9.154;2023-03-14T13:59:26;10.20;99.90
25342;DHT22;13298;48.792;9.154;2023-03-14T14:01:54;10.00;99.90
25342;DHT22;13298;48.792;9.154;2023-03-14T14:04:23;9.80;99.90
25342;DHT22;13298;48.792;9.154;2023-03-14T14:06:54;9.80;99.90
25342;DHT22;13298;48.792;9.154;2023-03-14T14:09:35;9.80;99.90
25342;DHT22;13298;48.792;9.154;2023-03-14T14:17:42;10.00;99.90
25342;DHT22;13298;48.792;9.154;2023-03-14T14:20:32;9.70;98.90
25342;DHT22;13298;48.792;9.154;2023-03-14T14:23:04;9.60;99.90
25342;DHT22;13298;48.792;9.154;2023-03-14T14:25:32;9.50;98.70
25342;DHT22;13298;48.792;9.154;2023-03-14T14:27:58;9.30;98.90
25342;DHT22;13298;48.792;9.154;2023-03-14T14:33:25;9.10;99.10
25342;DHT22;13298;48.792;9.154;2023-03-14T14:35:56;9.10;98.30
25342;DHT22;13298;48.792;9.154;2023-03-14T14:38:24;9.00;98.80
25342;DHT22;13298;48.792;9.154;2023-03-14T14:40:54;8.90;99.00
25342;DHT22;13298;48.792;9.154;2023-03-14T14:43:26;9.00;99.90
25342;DHT22;13298;48.792;9.154;2023-03-14T14:45:54;9.10;99.80
25342;DHT22;13298;48.792;9.154;2023-03-14T14:48:26;9.20;98.70
25342;DHT22;13298;48.792;9.154;2023-03-14T14:50:59;9.10;98.50
25342;DHT22;13298;48.792;9.154;2023-03-14T14:55:58;9.00;99.70
25342;DHT22;13298;48.792;9.154;2023-03-14T14:58:33;9.00;99.20
25342;DHT22;13298;48.792;9.154;2023-03-14T15:01:18;9.10;99.90
25342;DHT22;13298;48.792;9.154;2023-03-14T15:03:51;9.20;99.70
25342;DHT22;13298;48.792;9.154;2023-03-14T15:06:17;9.30;99.80
25342;DHT22;13298;48.792;9.154;2023-03-14T15:08:45;9.30;99.50
25342;DHT22;13298;48.792;9.154;2023-03-14T15:11:23;9.30;99.10
25342;DHT22;13298;48.792;9.154;2023-03-14T15:13:51;9.30;99.60
25342;DHT22;13298;48.792;9.154;2023-03-14T15:16:20;9.40;99.70
25342;DHT22;13298;48.792;9.154;2023-03-14T15:18:55;9.40;99.20
25342;DHT22;13298;48.792;9.154;2023-03-14T15:21:23;9.60;98.50
25342;DHT22;13298;48.792;9.154;2023-03-14T15:23:50;9.60;99.20
25342;DHT22;13298;48.792;9.154;2023-03-14T15:26:23;9.80;99.90
25342;DHT22;13298;48.792;9.154;2023-03-14T15:28:53;9.70;99.30
25342;DHT22;13298;48.792;9.154;2023-03-14T15:31:20;9.50;99.50
25342;DHT22;13298;48.792;9.154;2023-03-14T15:33:47;9.30;99.90
25342;DHT22;13298;48.792;9.154;2023-03-14T15:36:23;9.00;99.10
25342;DHT22;13298;48.792;9.154;2023-03-14T15:38:52;8.90;99.90
25342;DHT22;13298;48.792;9.154;2023-03-14T15:41:18;8.80;99.90
25342;DHT22;13298;48.792;9.154;2023-03-14T15:43:45;8.60;99.90
25342;DHT22;13298;48.792;9.154;2023-03-14T15:46:12;8.50;99.90
25342;DHT22;13298;48.792;9.154;2023-03-14T15:48:38;8.50;99.90
25342;DHT22;13298;48.792;9.154;2023-03-14T15:51:04;8.50;99.90
25342;DHT22;13298;48.792;9.154;2023-03-14T15:53:30;8.60;99.90
25342;DHT22;13298;48.792;9.154;2023-03-14T15:55:56;8.70;99.90
25342;DHT22;13298;48.792;9.154;2023-03-14T15:58:21;8.90;99.90
25342;DHT22;13298;48.792;9.154;2023-03-14T16:00:48;8.90;99.90
25342;DHT22;13298;48.792;9.154;2023-03-14T16:03:14;8.90;99.90
25342;DHT22;13298;48.792;9.154;2023-03-14T16:05:40;8.80;99.90
25342;DHT22;13298;48.792;9.154;2023-03-14T16:08:06;8.60;99.90
25342;DHT22;13298;48.792;9.154;2023-03-14T16:10:32;8.40;99.90
25342;DHT22;13298;48.792;9.154;2023-03-14T16:12:57;8.20;99.90
25342;DHT22;13298;48.792;9.154;2023-03-14T16:15:23;8.10;99.90
25342;DHT22;13298;48.792;9.154;2023-03-14T16:17:53;8.00;99.90
25342;DHT22;13298;48.792;9.154;2023-03-14T16:20:23;8.00;99.90
25342;DHT22;13298;48.792;9.154;2023-03-14T16:22:49;7.90;99.90
25342;DHT22;13298;48.792;9.154;2023-03-14T16:25:15;7.80;99.90
25342;DHT22;13298;48.792;9.154;2023-03-14T16:27:41;7.70;99.90
25342;DHT22;13298;48.792;9.154;2023-03-14T16:30:10;7.60;99.90
25342;DHT22;13298;48.792;9.154;2023-03-14T16:32:36;7.60;99.90
25342;DHT22;13298;48.792;9.154;2023-03-14T16:35:02;7.70;99.90
25342;DHT22;13298;48.792;9.154;2023-03-14T16:37:28;7.70;99.90
25342;DHT22;13298;48.792;9.154;2023-03-14T16:39:54;7.70;99.90
25342;DHT22;13298;48.792;9.154;2023-03-14T16:42:20;7.80;99.90
25342;DHT22;13298;48.792;9.154;2023-03-14T16:44:46;7.80;99.90
25342;DHT22;13298;48.792;9.154;2023-03-14T16:47:12;7.80;99.90
25342;DHT22;13298;48.792;9.154;2023-03-14T16:49:38;7.80;99.90
25342;DHT22;13298;48.792;9.154;2023-03-14T16:52:04;7.80;99.90
25342;DHT22;13298;48.792;9.154;2023-03-14T16:54:32;7.80;99.90